Athens Ben Epps Airport Athens US
ICAO: KAHN
IATA: AHN
Category: Medium
Scheduled Services: Yes

Elevation: 808 ft
TransAlt. 18000 ft.

Airport Communications:
ATLANTA APP/DEP:127.5
ASOS:132.875
ATLANTA CNTR:127.5
CTAF:126.3
GND:121.8
MACON RDO:109.6
TWR:126.3
UNICOM:122.95

KAHN Zoom In..

Runways:

(A) RW 02 length 3955 ft width 100 ft
---- / hdg 24

(B) RW 09 length 5522 ft width 100 ft
---- / hdg 91

(C) RW 20 length 3955 ft width 100 ft
---- / hdg 204

(D) RW 27 length 5522 ft width 100 ft
ILS 110.95 / hdg 271

Location; KAHN
Day. 24 / Time. 01.51 Zulu
* Altimeter: 30.07
* Temperature: 08° c. 46.4°f.
* Wind from: 280° Speed 07 kn.
Dewpoint: 00° c.
Visibility: 10 Statute Miles.
Clouds: Clear (automated report).

KAHN 240151Z AUTO 28007KT 10SM CLR 08/00 A3007 RMK AO2 SLP184 T00830000


Wind From 280°
Speed 07 kn.

YouTube Music Video
 
jpsmedia.com for Web Design  worldairports.se 2018   terms of use